sensor_id;sensor_type;location;lat;lon;timestamp;P1;durP1;ratioP1;P2;durP2;ratioP2
4971;SDS011;2501;51.214;6.768;2022-12-07T00:02:07;27.42;;;18.90;;
4971;SDS011;2501;51.214;6.768;2022-12-07T00:04:35;30.95;;;19.33;;
4971;SDS011;2501;51.214;6.768;2022-12-07T00:07:04;29.30;;;20.30;;
4971;SDS011;2501;51.214;6.768;2022-12-07T00:09:35;30.25;;;19.20;;
4971;SDS011;2501;51.214;6.768;2022-12-07T00:12:04;29.42;;;19.38;;
4971;SDS011;2501;51.214;6.768;2022-12-07T00:14:33;28.50;;;19.30;;
4971;SDS011;2501;51.214;6.768;2022-12-07T00:17:01;28.45;;;19.00;;
4971;SDS011;2501;51.214;6.768;2022-12-07T00:19:30;33.08;;;20.63;;
4971;SDS011;2501;51.214;6.768;2022-12-07T00:21:58;33.30;;;21.25;;
4971;SDS011;2501;51.214;6.768;2022-12-07T00:24:27;33.63;;;21.60;;
4971;SDS011;2501;51.214;6.768;2022-12-07T00:26:58;35.08;;;22.73;;
4971;SDS011;2501;51.214;6.768;2022-12-07T00:29:26;35.28;;;21.95;;
4971;SDS011;2501;51.214;6.768;2022-12-07T00:31:54;36.13;;;21.00;;
4971;SDS011;2501;51.214;6.768;2022-12-07T00:34:23;32.08;;;20.58;;
4971;SDS011;2501;51.214;6.768;2022-12-07T00:36:51;35.67;;;22.00;;
4971;SDS011;2501;51.214;6.768;2022-12-07T00:39:19;36.15;;;22.70;;
4971;SDS011;2501;51.214;6.768;2022-12-07T00:41:48;33.95;;;20.83;;
4971;SDS011;2501;51.214;6.768;2022-12-07T00:44:19;33.38;;;21.00;;
4971;SDS011;2501;51.214;6.768;2022-12-07T00:46:47;35.53;;;20.90;;
4971;SDS011;2501;51.214;6.768;2022-12-07T00:49:16;35.27;;;21.40;;
4971;SDS011;2501;51.214;6.768;2022-12-07T00:51:44;36.65;;;21.85;;
4971;SDS011;2501;51.214;6.768;2022-12-07T00:54:12;31.20;;;19.80;;
4971;SDS011;2501;51.214;6.768;2022-12-07T00:56:41;31.05;;;19.88;;
4971;SDS011;2501;51.214;6.768;2022-12-07T00:59:10;32.20;;;20.07;;
4971;SDS011;2501;51.214;6.768;2022-12-07T01:01:44;34.57;;;22.50;;
4971;SDS011;2501;51.214;6.768;2022-12-07T01:04:12;32.92;;;20.98;;
4971;SDS011;2501;51.214;6.768;2022-12-07T01:06:41;34.65;;;21.50;;
4971;SDS011;2501;51.214;6.768;2022-12-07T01:09:09;30.50;;;20.73;;
4971;SDS011;2501;51.214;6.768;2022-12-07T01:11:37;32.83;;;22.40;;
4971;SDS011;2501;51.214;6.768;2022-12-07T01:14:06;34.97;;;20.58;;
4971;SDS011;2501;51.214;6.768;2022-12-07T01:16:34;29.95;;;20.48;;
4971;SDS011;2501;51.214;6.768;2022-12-07T01:19:05;30.45;;;21.23;;
4971;SDS011;2501;51.214;6.768;2022-12-07T01:21:34;33.55;;;20.58;;
4971;SDS011;2501;51.214;6.768;2022-12-07T01:27:14;29.50;;;20.77;;
4971;SDS011;2501;51.214;6.768;2022-12-07T01:29:42;28.95;;;20.63;;
4971;SDS011;2501;51.214;6.768;2022-12-07T01:32:11;35.13;;;21.30;;
4971;SDS011;2501;51.214;6.768;2022-12-07T01:34:42;31.40;;;20.88;;
4971;SDS011;2501;51.214;6.768;2022-12-07T01:37:10;32.53;;;19.70;;
4971;SDS011;2501;51.214;6.768;2022-12-07T01:39:38;36.00;;;20.33;;
4971;SDS011;2501;51.214;6.768;2022-12-07T01:42:08;29.05;;;19.77;;
4971;SDS011;2501;51.214;6.768;2022-12-07T01:47:41;35.20;;;20.25;;
4971;SDS011;2501;51.214;6.768;2022-12-07T01:50:14;36.10;;;20.07;;
4971;SDS011;2501;51.214;6.768;2022-12-07T01:52:42;31.23;;;19.90;;
4971;SDS011;2501;51.214;6.768;2022-12-07T01:55:13;39.80;;;21.00;;
4971;SDS011;2501;51.214;6.768;2022-12-07T01:57:43;33.40;;;20.40;;
4971;SDS011;2501;51.214;6.768;2022-12-07T02:00:15;38.50;;;21.52;;
4971;SDS011;2501;51.214;6.768;2022-12-07T02:02:46;36.60;;;21.70;;
4971;SDS011;2501;51.214;6.768;2022-12-07T02:05:21;32.33;;;21.27;;
4971;SDS011;2501;51.214;6.768;2022-12-07T02:07:53;32.42;;;21.70;;
4971;SDS011;2501;51.214;6.768;2022-12-07T02:10:24;33.50;;;21.90;;
4971;SDS011;2501;51.214;6.768;2022-12-07T02:12:55;32.92;;;21.60;;
4971;SDS011;2501;51.214;6.768;2022-12-07T02:15:28;33.67;;;21.13;;
4971;SDS011;2501;51.214;6.768;2022-12-07T02:18:09;38.50;;;20.90;;
4971;SDS011;2501;51.214;6.768;2022-12-07T02:20:48;29.73;;;20.60;;
4971;SDS011;2501;51.214;6.768;2022-12-07T02:23:43;35.05;;;20.77;;
4971;SDS011;2501;51.214;6.768;2022-12-07T02:29:40;33.35;;;21.05;;
4971;SDS011;2501;51.214;6.768;2022-12-07T02:32:15;35.17;;;21.85;;
4971;SDS011;2501;51.214;6.768;2022-12-07T02:34:49;29.35;;;22.35;;
4971;SDS011;2501;51.214;6.768;2022-12-07T02:37:25;34.40;;;22.17;;
4971;SDS011;2501;51.214;6.768;2022-12-07T02:40:10;35.80;;;21.45;;
4971;SDS011;2501;51.214;6.768;2022-12-07T02:42:47;34.90;;;22.17;;
4971;SDS011;2501;51.214;6.768;2022-12-07T02:45:21;37.95;;;21.83;;
4971;SDS011;2501;51.214;6.768;2022-12-07T02:47:53;33.40;;;21.92;;
4971;SDS011;2501;51.214;6.768;2022-12-07T02:50:26;31.10;;;21.87;;
4971;SDS011;2501;51.214;6.768;2022-12-07T02:52:55;40.65;;;23.58;;
4971;SDS011;2501;51.214;6.768;2022-12-07T02:55:26;34.00;;;21.42;;
4971;SDS011;2501;51.214;6.768;2022-12-07T02:58:02;29.27;;;20.17;;
4971;SDS011;2501;51.214;6.768;2022-12-07T03:00:46;29.20;;;20.73;;
4971;SDS011;2501;51.214;6.768;2022-12-07T03:03:22;30.88;;;21.15;;
4971;SDS011;2501;51.214;6.768;2022-12-07T03:05:54;32.05;;;20.27;;
4971;SDS011;2501;51.214;6.768;2022-12-07T03:08:44;28.98;;;21.27;;
4971;SDS011;2501;51.214;6.768;2022-12-07T03:11:22;28.50;;;20.00;;
4971;SDS011;2501;51.214;6.768;2022-12-07T03:13:58;28.00;;;20.83;;
4971;SDS011;2501;51.214;6.768;2022-12-07T03:16:35;28.83;;;20.60;;
4971;SDS011;2501;51.214;6.768;2022-12-07T03:19:07;28.33;;;20.73;;
4971;SDS011;2501;51.214;6.768;2022-12-07T03:21:46;32.53;;;21.13;;
4971;SDS011;2501;51.214;6.768;2022-12-07T03:24:18;30.42;;;21.42;;
4971;SDS011;2501;51.214;6.768;2022-12-07T03:26:51;28.48;;;20.10;;
4971;SDS011;2501;51.214;6.768;2022-12-07T03:29:24;28.73;;;19.27;;
4971;SDS011;2501;51.214;6.768;2022-12-07T03:31:58;28.73;;;19.73;;
4971;SDS011;2501;51.214;6.768;2022-12-07T03:34:34;27.92;;;18.30;;
4971;SDS011;2501;51.214;6.768;2022-12-07T03:37:07;29.27;;;20.15;;
4971;SDS011;2501;51.214;6.768;2022-12-07T03:39:45;27.98;;;19.33;;
4971;SDS011;2501;51.214;6.768;2022-12-07T03:42:22;31.73;;;20.35;;
4971;SDS011;2501;51.214;6.768;2022-12-07T03:44:51;27.15;;;19.85;;
4971;SDS011;2501;51.214;6.768;2022-12-07T03:47:23;28.08;;;20.13;;
4971;SDS011;2501;51.214;6.768;2022-12-07T03:49:58;29.70;;;19.20;;
4971;SDS011;2501;51.214;6.768;2022-12-07T03:52:31;29.50;;;19.08;;
4971;SDS011;2501;51.214;6.768;2022-12-07T03:55:06;25.58;;;18.90;;
4971;SDS011;2501;51.214;6.768;2022-12-07T03:57:38;29.92;;;18.90;;
4971;SDS011;2501;51.214;6.768;2022-12-07T04:00:10;27.93;;;18.73;;
4971;SDS011;2501;51.214;6.768;2022-12-07T04:02:42;28.13;;;18.92;;
4971;SDS011;2501;51.214;6.768;2022-12-07T04:05:10;29.05;;;18.38;;
4971;SDS011;2501;51.214;6.768;2022-12-07T04:07:39;28.60;;;19.77;;
4971;SDS011;2501;51.214;6.768;2022-12-07T04:10:09;27.77;;;18.85;;
4971;SDS011;2501;51.214;6.768;2022-12-07T04:12:38;28.65;;;19.58;;
4971;SDS011;2501;51.214;6.768;2022-12-07T04:15:07;30.88;;;20.00;;
4971;SDS011;2501;51.214;6.768;2022-12-07T04:17:36;26.10;;;19.13;;
4971;SDS011;2501;51.214;6.768;2022-12-07T04:20:08;29.10;;;20.75;;
4971;SDS011;2501;51.214;6.768;2022-12-07T04:22:37;25.90;;;18.20;;
4971;SDS011;2501;51.214;6.768;2022-12-07T04:25:06;23.65;;;17.38;;
4971;SDS011;2501;51.214;6.768;2022-12-07T04:27:35;23.80;;;17.60;;
4971;SDS011;2501;51.214;6.768;2022-12-07T04:30:04;25.05;;;16.63;;
4971;SDS011;2501;51.214;6.768;2022-12-07T04:32:33;24.13;;;17.67;;
4971;SDS011;2501;51.214;6.768;2022-12-07T04:35:02;23.40;;;16.50;;
4971;SDS011;2501;51.214;6.768;2022-12-07T04:37:34;24.55;;;15.88;;
4971;SDS011;2501;51.214;6.768;2022-12-07T04:40:05;24.83;;;15.85;;
4971;SDS011;2501;51.214;6.768;2022-12-07T04:42:36;22.27;;;14.40;;
4971;SDS011;2501;51.214;6.768;2022-12-07T04:45:05;21.02;;;15.18;;
4971;SDS011;2501;51.214;6.768;2022-12-07T04:47:35;21.13;;;15.00;;
4971;SDS011;2501;51.214;6.768;2022-12-07T04:50:04;25.02;;;16.20;;
4971;SDS011;2501;51.214;6.768;2022-12-07T04:52:36;21.30;;;15.13;;
4971;SDS011;2501;51.214;6.768;2022-12-07T04:55:05;18.88;;;14.65;;
4971;SDS011;2501;51.214;6.768;2022-12-07T04:57:34;19.20;;;14.65;;
4971;SDS011;2501;51.214;6.768;2022-12-07T05:00:02;22.92;;;14.32;;
4971;SDS011;2501;51.214;6.768;2022-12-07T05:02:31;19.65;;;13.90;;
4971;SDS011;2501;51.214;6.768;2022-12-07T05:05:00;19.48;;;13.50;;
4971;SDS011;2501;51.214;6.768;2022-12-07T05:07:28;20.45;;;13.45;;
4971;SDS011;2501;51.214;6.768;2022-12-07T05:09:59;20.17;;;13.07;;
4971;SDS011;2501;51.214;6.768;2022-12-07T05:12:27;19.77;;;12.00;;
4971;SDS011;2501;51.214;6.768;2022-12-07T05:14:56;17.50;;;11.48;;
4971;SDS011;2501;51.214;6.768;2022-12-07T05:17:25;13.07;;;11.30;;
4971;SDS011;2501;51.214;6.768;2022-12-07T05:19:54;18.42;;;12.00;;
4971;SDS011;2501;51.214;6.768;2022-12-07T05:22:22;16.83;;;12.20;;
4971;SDS011;2501;51.214;6.768;2022-12-07T05:24:53;15.40;;;10.90;;
4971;SDS011;2501;51.214;6.768;2022-12-07T05:27:24;24.23;;;12.48;;
4971;SDS011;2501;51.214;6.768;2022-12-07T05:29:52;14.45;;;11.18;;
4971;SDS011;2501;51.214;6.768;2022-12-07T05:32:21;15.93;;;11.55;;
4971;SDS011;2501;51.214;6.768;2022-12-07T05:34:49;14.37;;;11.27;;
4971;SDS011;2501;51.214;6.768;2022-12-07T05:37:19;13.80;;;10.90;;
4971;SDS011;2501;51.214;6.768;2022-12-07T05:39:48;15.00;;;11.23;;
4971;SDS011;2501;51.214;6.768;2022-12-07T05:42:16;17.75;;;11.38;;
4971;SDS011;2501;51.214;6.768;2022-12-07T05:44:47;12.57;;;10.73;;
4971;SDS011;2501;51.214;6.768;2022-12-07T05:47:16;20.63;;;10.00;;
4971;SDS011;2501;51.214;6.768;2022-12-07T05:49:44;21.02;;;10.35;;
4971;SDS011;2501;51.214;6.768;2022-12-07T05:52:13;14.10;;;10.03;;
4971;SDS011;2501;51.214;6.768;2022-12-07T05:54:41;18.40;;;11.10;;
4971;SDS011;2501;51.214;6.768;2022-12-07T05:57:10;17.33;;;10.90;;
4971;SDS011;2501;51.214;6.768;2022-12-07T05:59:38;13.35;;;10.40;;
4971;SDS011;2501;51.214;6.768;2022-12-07T06:02:07;20.27;;;10.20;;
4971;SDS011;2501;51.214;6.768;2022-12-07T06:04:38;14.37;;;9.60;;
4971;SDS011;2501;51.214;6.768;2022-12-07T06:07:08;15.95;;;10.05;;
4971;SDS011;2501;51.214;6.768;2022-12-07T06:09:38;18.17;;;10.05;;
4971;SDS011;2501;51.214;6.768;2022-12-07T06:12:08;16.05;;;9.95;;
4971;SDS011;2501;51.214;6.768;2022-12-07T06:14:50;16.40;;;9.77;;
4971;SDS011;2501;51.214;6.768;2022-12-07T06:17:21;20.75;;;10.43;;
4971;SDS011;2501;51.214;6.768;2022-12-07T06:19:50;17.83;;;10.35;;
4971;SDS011;2501;51.214;6.768;2022-12-07T06:22:18;12.50;;;8.33;;
4971;SDS011;2501;51.214;6.768;2022-12-07T06:24:46;19.10;;;9.57;;
4971;SDS011;2501;51.214;6.768;2022-12-07T06:27:15;14.65;;;9.23;;
4971;SDS011;2501;51.214;6.768;2022-12-07T06:29:43;15.88;;;9.32;;
4971;SDS011;2501;51.214;6.768;2022-12-07T06:32:12;15.98;;;9.80;;
4971;SDS011;2501;51.214;6.768;2022-12-07T06:34:43;17.52;;;9.73;;
4971;SDS011;2501;51.214;6.768;2022-12-07T06:37:12;17.55;;;9.88;;
4971;SDS011;2501;51.214;6.768;2022-12-07T06:39:41;21.55;;;10.30;;
4971;SDS011;2501;51.214;6.768;2022-12-07T06:42:10;19.48;;;10.45;;
4971;SDS011;2501;51.214;6.768;2022-12-07T06:44:38;14.05;;;9.82;;
4971;SDS011;2501;51.214;6.768;2022-12-07T06:47:07;15.68;;;9.90;;
4971;SDS011;2501;51.214;6.768;2022-12-07T06:49:36;18.55;;;10.35;;
4971;SDS011;2501;51.214;6.768;2022-12-07T06:52:07;16.42;;;10.05;;
4971;SDS011;2501;51.214;6.768;2022-12-07T06:54:36;18.70;;;11.27;;
4971;SDS011;2501;51.214;6.768;2022-12-07T06:57:04;83.18;;;17.98;;
4971;SDS011;2501;51.214;6.768;2022-12-07T06:59:33;18.00;;;10.57;;
4971;SDS011;2501;51.214;6.768;2022-12-07T07:02:01;14.80;;;9.60;;
4971;SDS011;2501;51.214;6.768;2022-12-07T07:04:30;15.80;;;9.98;;
4971;SDS011;2501;51.214;6.768;2022-12-07T07:06:58;13.32;;;9.98;;
4971;SDS011;2501;51.214;6.768;2022-12-07T07:09:29;18.70;;;10.65;;
4971;SDS011;2501;51.214;6.768;2022-12-07T07:11:57;18.03;;;10.90;;
4971;SDS011;2501;51.214;6.768;2022-12-07T07:14:26;22.48;;;12.15;;
4971;SDS011;2501;51.214;6.768;2022-12-07T07:16:54;17.80;;;11.02;;
4971;SDS011;2501;51.214;6.768;2022-12-07T07:19:23;16.55;;;10.30;;
4971;SDS011;2501;51.214;6.768;2022-12-07T07:21:51;17.67;;;10.38;;
4971;SDS011;2501;51.214;6.768;2022-12-07T07:24:19;20.40;;;10.52;;
4971;SDS011;2501;51.214;6.768;2022-12-07T07:26:51;20.33;;;11.85;;
4971;SDS011;2501;51.214;6.768;2022-12-07T07:29:19;19.20;;;10.50;;
4971;SDS011;2501;51.214;6.768;2022-12-07T07:31:47;19.70;;;10.70;;
4971;SDS011;2501;51.214;6.768;2022-12-07T07:34:16;17.95;;;10.80;;
4971;SDS011;2501;51.214;6.768;2022-12-07T07:36:45;24.33;;;10.57;;
4971;SDS011;2501;51.214;6.768;2022-12-07T07:39:13;16.50;;;9.85;;
4971;SDS011;2501;51.214;6.768;2022-12-07T07:41:42;17.05;;;9.52;;
4971;SDS011;2501;51.214;6.768;2022-12-07T07:44:13;15.60;;;9.80;;
4971;SDS011;2501;51.214;6.768;2022-12-07T07:46:41;14.27;;;10.40;;
4971;SDS011;2501;51.214;6.768;2022-12-07T07:49:10;19.17;;;11.15;;
4971;SDS011;2501;51.214;6.768;2022-12-07T07:51:38;15.23;;;9.93;;
4971;SDS011;2501;51.214;6.768;2022-12-07T07:54:07;18.73;;;9.85;;
4971;SDS011;2501;51.214;6.768;2022-12-07T07:56:35;15.50;;;10.52;;
4971;SDS011;2501;51.214;6.768;2022-12-07T07:59:04;13.32;;;9.20;;
4971;SDS011;2501;51.214;6.768;2022-12-07T08:01:35;20.85;;;9.30;;
4971;SDS011;2501;51.214;6.768;2022-12-07T08:04:03;17.42;;;9.27;;
4971;SDS011;2501;51.214;6.768;2022-12-07T08:06:32;16.17;;;9.70;;
4971;SDS011;2501;51.214;6.768;2022-12-07T08:09:00;19.33;;;10.30;;
4971;SDS011;2501;51.214;6.768;2022-12-07T08:11:30;19.33;;;9.60;;
4971;SDS011;2501;51.214;6.768;2022-12-07T08:13:59;26.20;;;10.73;;
4971;SDS011;2501;51.214;6.768;2022-12-07T08:16:27;19.55;;;10.00;;
4971;SDS011;2501;51.214;6.768;2022-12-07T08:18:58;15.68;;;8.40;;
4971;SDS011;2501;51.214;6.768;2022-12-07T08:21:27;18.10;;;8.93;;
4971;SDS011;2501;51.214;6.768;2022-12-07T08:23:56;15.80;;;8.38;;
4971;SDS011;2501;51.214;6.768;2022-12-07T08:26:25;20.70;;;9.40;;
4971;SDS011;2501;51.214;6.768;2022-12-07T08:28:53;20.92;;;9.55;;
4971;SDS011;2501;51.214;6.768;2022-12-07T08:31:22;21.00;;;9.23;;
4971;SDS011;2501;51.214;6.768;2022-12-07T08:33:50;15.88;;;8.30;;
4971;SDS011;2501;51.214;6.768;2022-12-07T08:36:21;12.98;;;8.55;;
4971;SDS011;2501;51.214;6.768;2022-12-07T08:38:50;15.77;;;8.73;;
4971;SDS011;2501;51.214;6.768;2022-12-07T08:41:19;16.05;;;8.25;;
4971;SDS011;2501;51.214;6.768;2022-12-07T08:43:47;18.88;;;8.50;;
4971;SDS011;2501;51.214;6.768;2022-12-07T08:46:17;14.38;;;8.48;;
4971;SDS011;2501;51.214;6.768;2022-12-07T08:48:50;15.30;;;8.30;;
4971;SDS011;2501;51.214;6.768;2022-12-07T08:51:25;16.33;;;8.35;;
4971;SDS011;2501;51.214;6.768;2022-12-07T08:53:54;19.92;;;9.20;;
4971;SDS011;2501;51.214;6.768;2022-12-07T08:56:26;18.52;;;9.77;;
4971;SDS011;2501;51.214;6.768;2022-12-07T08:58:55;17.42;;;9.48;;
4971;SDS011;2501;51.214;6.768;2022-12-07T09:01:23;22.23;;;9.95;;
4971;SDS011;2501;51.214;6.768;2022-12-07T09:03:52;23.83;;;9.80;;
4971;SDS011;2501;51.214;6.768;2022-12-07T09:06:20;24.60;;;10.88;;
4971;SDS011;2501;51.214;6.768;2022-12-07T09:08:52;21.07;;;9.87;;
4971;SDS011;2501;51.214;6.768;2022-12-07T09:11:26;18.30;;;11.07;;
4971;SDS011;2501;51.214;6.768;2022-12-07T09:13:54;23.00;;;11.43;;
4971;SDS011;2501;51.214;6.768;2022-12-07T09:16:23;23.35;;;11.10;;
4971;SDS011;2501;51.214;6.768;2022-12-07T09:18:51;18.10;;;9.60;;
4971;SDS011;2501;51.214;6.768;2022-12-07T09:21:20;21.67;;;9.13;;
4971;SDS011;2501;51.214;6.768;2022-12-07T09:23:48;21.92;;;9.10;;
4971;SDS011;2501;51.214;6.768;2022-12-07T09:26:19;21.38;;;10.35;;
4971;SDS011;2501;51.214;6.768;2022-12-07T09:28:48;15.95;;;8.50;;
4971;SDS011;2501;51.214;6.768;2022-12-07T09:31:16;21.65;;;9.13;;
4971;SDS011;2501;51.214;6.768;2022-12-07T09:33:45;15.73;;;8.57;;
4971;SDS011;2501;51.214;6.768;2022-12-07T09:36:13;23.58;;;9.50;;
4971;SDS011;2501;51.214;6.768;2022-12-07T09:38:41;19.33;;;9.18;;
4971;SDS011;2501;51.214;6.768;2022-12-07T09:41:10;18.77;;;8.70;;
4971;SDS011;2501;51.214;6.768;2022-12-07T09:43:41;19.90;;;8.45;;
4971;SDS011;2501;51.214;6.768;2022-12-07T09:46:11;19.17;;;8.48;;
4971;SDS011;2501;51.214;6.768;2022-12-07T09:48:44;19.17;;;8.40;;
4971;SDS011;2501;51.214;6.768;2022-12-07T09:51:16;21.63;;;8.80;;
4971;SDS011;2501;51.214;6.768;2022-12-07T09:53:46;17.90;;;8.85;;
4971;SDS011;2501;51.214;6.768;2022-12-07T09:56:16;26.50;;;8.88;;
4971;SDS011;2501;51.214;6.768;2022-12-07T09:58:54;22.35;;;8.25;;
4971;SDS011;2501;51.214;6.768;2022-12-07T10:01:27;19.77;;;9.00;;
4971;SDS011;2501;51.214;6.768;2022-12-07T10:03:59;14.68;;;7.63;;
4971;SDS011;2501;51.214;6.768;2022-12-07T10:06:34;20.83;;;8.02;;
4971;SDS011;2501;51.214;6.768;2022-12-07T10:09:08;17.10;;;7.70;;
4971;SDS011;2501;51.214;6.768;2022-12-07T10:14:31;17.92;;;7.40;;
4971;SDS011;2501;51.214;6.768;2022-12-07T10:17:01;17.52;;;7.80;;
4971;SDS011;2501;51.214;6.768;2022-12-07T10:19:31;13.70;;;7.45;;
4971;SDS011;2501;51.214;6.768;2022-12-07T10:22:02;22.55;;;7.82;;
4971;SDS011;2501;51.214;6.768;2022-12-07T10:24:33;23.80;;;8.35;;
4971;SDS011;2501;51.214;6.768;2022-12-07T10:27:02;13.98;;;7.35;;
4971;SDS011;2501;51.214;6.768;2022-12-07T10:29:34;16.50;;;8.23;;
4971;SDS011;2501;51.214;6.768;2022-12-07T10:32:21;15.03;;;8.57;;
4971;SDS011;2501;51.214;6.768;2022-12-07T10:37:51;16.55;;;9.02;;
4971;SDS011;2501;51.214;6.768;2022-12-07T10:40:25;23.53;;;7.87;;
4971;SDS011;2501;51.214;6.768;2022-12-07T10:43:02;12.10;;;7.13;;
4971;SDS011;2501;51.214;6.768;2022-12-07T10:45:36;14.15;;;6.38;;
4971;SDS011;2501;51.214;6.768;2022-12-07T10:48:27;15.10;;;7.27;;
4971;SDS011;2501;51.214;6.768;2022-12-07T10:51:03;11.88;;;5.80;;
4971;SDS011;2501;51.214;6.768;2022-12-07T10:53:44;10.60;;;6.43;;
4971;SDS011;2501;51.214;6.768;2022-12-07T10:56:29;14.40;;;5.97;;
4971;SDS011;2501;51.214;6.768;2022-12-07T10:59:20;12.43;;;6.53;;
4971;SDS011;2501;51.214;6.768;2022-12-07T11:02:12;18.85;;;6.40;;
4971;SDS011;2501;51.214;6.768;2022-12-07T11:04:54;14.90;;;6.78;;
4971;SDS011;2501;51.214;6.768;2022-12-07T11:07:34;11.98;;;6.00;;
4971;SDS011;2501;51.214;6.768;2022-12-07T11:10:13;10.93;;;5.97;;
4971;SDS011;2501;51.214;6.768;2022-12-07T11:12:49;17.52;;;5.97;;
4971;SDS011;2501;51.214;6.768;2022-12-07T11:15:31;8.13;;;4.78;;
4971;SDS011;2501;51.214;6.768;2022-12-07T11:18:14;10.80;;;5.47;;
4971;SDS011;2501;51.214;6.768;2022-12-07T11:20:51;10.60;;;5.40;;
4971;SDS011;2501;51.214;6.768;2022-12-07T11:23:25;10.93;;;6.13;;
4971;SDS011;2501;51.214;6.768;2022-12-07T11:26:04;9.63;;;6.68;;
4971;SDS011;2501;51.214;6.768;2022-12-07T11:28:46;15.20;;;6.40;;
4971;SDS011;2501;51.214;6.768;2022-12-07T11:31:33;11.30;;;6.35;;
4971;SDS011;2501;51.214;6.768;2022-12-07T11:34:13;7.93;;;5.40;;
4971;SDS011;2501;51.214;6.768;2022-12-07T11:36:50;14.10;;;6.20;;
4971;SDS011;2501;51.214;6.768;2022-12-07T11:39:23;11.40;;;5.88;;
4971;SDS011;2501;51.214;6.768;2022-12-07T11:41:57;14.80;;;5.50;;
4971;SDS011;2501;51.214;6.768;2022-12-07T11:44:31;18.93;;;6.40;;
4971;SDS011;2501;51.214;6.768;2022-12-07T11:47:05;16.40;;;6.90;;
4971;SDS011;2501;51.214;6.768;2022-12-07T11:49:40;12.48;;;6.65;;
4971;SDS011;2501;51.214;6.768;2022-12-07T11:52:16;12.30;;;5.70;;
4971;SDS011;2501;51.214;6.768;2022-12-07T11:54:51;12.10;;;5.97;;
4971;SDS011;2501;51.214;6.768;2022-12-07T11:57:24;18.42;;;6.57;;
4971;SDS011;2501;51.214;6.768;2022-12-07T11:59:57;11.77;;;6.00;;
4971;SDS011;2501;51.214;6.768;2022-12-07T12:02:32;13.98;;;5.40;;
4971;SDS011;2501;51.214;6.768;2022-12-07T12:05:12;14.95;;;6.53;;
4971;SDS011;2501;51.214;6.768;2022-12-07T12:07:46;14.15;;;6.55;;
4971;SDS011;2501;51.214;6.768;2022-12-07T12:10:21;17.92;;;7.18;;
4971;SDS011;2501;51.214;6.768;2022-12-07T12:13:01;14.88;;;7.80;;
4971;SDS011;2501;51.214;6.768;2022-12-07T12:15:45;17.20;;;6.90;;
4971;SDS011;2501;51.214;6.768;2022-12-07T12:18:38;14.80;;;5.40;;
4971;SDS011;2501;51.214;6.768;2022-12-07T12:21:17;11.32;;;4.70;;
4971;SDS011;2501;51.214;6.768;2022-12-07T12:23:48;12.00;;;4.60;;
4971;SDS011;2501;51.214;6.768;2022-12-07T12:26:22;12.05;;;4.80;;
4971;SDS011;2501;51.214;6.768;2022-12-07T12:28:54;12.95;;;5.72;;
4971;SDS011;2501;51.214;6.768;2022-12-07T12:31:32;15.75;;;6.50;;
4971;SDS011;2501;51.214;6.768;2022-12-07T12:37:07;13.82;;;5.28;;
4971;SDS011;2501;51.214;6.768;2022-12-07T12:42:56;8.85;;;5.30;;
4971;SDS011;2501;51.214;6.768;2022-12-07T12:45:26;14.73;;;5.72;;
4971;SDS011;2501;51.214;6.768;2022-12-07T12:47:57;11.48;;;5.57;;
4971;SDS011;2501;51.214;6.768;2022-12-07T12:50:27;11.90;;;5.90;;
4971;SDS011;2501;51.214;6.768;2022-12-07T12:53:04;17.23;;;6.85;;
4971;SDS011;2501;51.214;6.768;2022-12-07T12:55:48;14.63;;;6.40;;
4971;SDS011;2501;51.214;6.768;2022-12-07T12:58:33;14.80;;;6.70;;
4971;SDS011;2501;51.214;6.768;2022-12-07T13:04:12;17.38;;;6.43;;
4971;SDS011;2501;51.214;6.768;2022-12-07T13:06:45;15.32;;;5.95;;
4971;SDS011;2501;51.214;6.768;2022-12-07T13:09:20;16.50;;;6.70;;
4971;SDS011;2501;51.214;6.768;2022-12-07T13:11:55;16.83;;;6.60;;
4971;SDS011;2501;51.214;6.768;2022-12-07T13:26:15;12.55;;;5.70;;
4971;SDS011;2501;51.214;6.768;2022-12-07T13:28:46;8.50;;;4.82;;
4971;SDS011;2501;51.214;6.768;2022-12-07T13:31:20;9.45;;;5.20;;
4971;SDS011;2501;51.214;6.768;2022-12-07T13:33:57;11.10;;;5.40;;
4971;SDS011;2501;51.214;6.768;2022-12-07T13:36:26;9.13;;;4.82;;
4971;SDS011;2501;51.214;6.768;2022-12-07T13:39:09;10.10;;;5.68;;
4971;SDS011;2501;51.214;6.768;2022-12-07T13:41:48;11.60;;;5.32;;
4971;SDS011;2501;51.214;6.768;2022-12-07T13:44:20;11.52;;;5.65;;
4971;SDS011;2501;51.214;6.768;2022-12-07T13:46:51;9.07;;;5.55;;
4971;SDS011;2501;51.214;6.768;2022-12-07T13:49:26;12.45;;;5.53;;
4971;SDS011;2501;51.214;6.768;2022-12-07T13:52:08;10.48;;;5.45;;
4971;SDS011;2501;51.214;6.768;2022-12-07T13:54:44;11.80;;;5.60;;
4971;SDS011;2501;51.214;6.768;2022-12-07T13:57:16;12.65;;;5.55;;
4971;SDS011;2501;51.214;6.768;2022-12-07T13:59:45;11.13;;;4.32;;
4971;SDS011;2501;51.214;6.768;2022-12-07T14:02:17;9.65;;;4.35;;
4971;SDS011;2501;51.214;6.768;2022-12-07T14:04:48;11.68;;;3.90;;
4971;SDS011;2501;51.214;6.768;2022-12-07T14:07:19;9.32;;;3.15;;
4971;SDS011;2501;51.214;6.768;2022-12-07T14:09:58;11.50;;;3.80;;
4971;SDS011;2501;51.214;6.768;2022-12-07T14:12:31;8.38;;;3.30;;
4971;SDS011;2501;51.214;6.768;2022-12-07T14:15:03;14.27;;;4.20;;
4971;SDS011;2501;51.214;6.768;2022-12-07T14:17:34;10.27;;;5.10;;
4971;SDS011;2501;51.214;6.768;2022-12-07T14:20:03;9.43;;;3.90;;
4971;SDS011;2501;51.214;6.768;2022-12-07T14:22:53;8.33;;;3.60;;
4971;SDS011;2501;51.214;6.768;2022-12-07T14:25:23;13.82;;;4.68;;
4971;SDS011;2501;51.214;6.768;2022-12-07T14:27:56;11.00;;;4.18;;
4971;SDS011;2501;51.214;6.768;2022-12-07T14:30:27;9.30;;;3.83;;
4971;SDS011;2501;51.214;6.768;2022-12-07T14:32:58;12.40;;;3.97;;
4971;SDS011;2501;51.214;6.768;2022-12-07T14:35:28;10.30;;;4.20;;
4971;SDS011;2501;51.214;6.768;2022-12-07T14:37:57;11.23;;;5.00;;
4971;SDS011;2501;51.214;6.768;2022-12-07T14:40:27;12.43;;;4.40;;
4971;SDS011;2501;51.214;6.768;2022-12-07T14:43:00;11.30;;;4.32;;
4971;SDS011;2501;51.214;6.768;2022-12-07T14:45:30;10.27;;;3.88;;
4971;SDS011;2501;51.214;6.768;2022-12-07T14:47:59;8.27;;;3.50;;
4971;SDS011;2501;51.214;6.768;2022-12-07T14:50:27;11.07;;;3.80;;
4971;SDS011;2501;51.214;6.768;2022-12-07T14:52:58;10.52;;;4.40;;
4971;SDS011;2501;51.214;6.768;2022-12-07T14:55:29;10.10;;;4.18;;
4971;SDS011;2501;51.214;6.768;2022-12-07T14:58:01;11.45;;;3.78;;
4971;SDS011;2501;51.214;6.768;2022-12-07T15:00:30;14.10;;;3.90;;
4971;SDS011;2501;51.214;6.768;2022-12-07T15:02:59;20.23;;;4.50;;
4971;SDS011;2501;51.214;6.768;2022-12-07T15:05:28;18.08;;;5.00;;
4971;SDS011;2501;51.214;6.768;2022-12-07T15:07:56;15.70;;;4.73;;
4971;SDS011;2501;51.214;6.768;2022-12-07T15:10:26;14.70;;;5.70;;
4971;SDS011;2501;51.214;6.768;2022-12-07T15:12:57;7.32;;;4.43;;
4971;SDS011;2501;51.214;6.768;2022-12-07T15:15:49;16.73;;;5.63;;
4971;SDS011;2501;51.214;6.768;2022-12-07T15:18:19;13.60;;;5.77;;
4971;SDS011;2501;51.214;6.768;2022-12-07T15:20:50;15.30;;;6.60;;
4971;SDS011;2501;51.214;6.768;2022-12-07T15:23:18;12.82;;;6.03;;
4971;SDS011;2501;51.214;6.768;2022-12-07T15:25:47;12.07;;;5.78;;
4971;SDS011;2501;51.214;6.768;2022-12-07T15:28:16;13.27;;;6.18;;
4971;SDS011;2501;51.214;6.768;2022-12-07T15:30:45;17.80;;;5.80;;
4971;SDS011;2501;51.214;6.768;2022-12-07T15:33:16;14.63;;;4.80;;
4971;SDS011;2501;51.214;6.768;2022-12-07T15:35:45;8.90;;;4.70;;
4971;SDS011;2501;51.214;6.768;2022-12-07T15:38:13;10.98;;;4.82;;
4971;SDS011;2501;51.214;6.768;2022-12-07T15:40:41;13.15;;;4.88;;
4971;SDS011;2501;51.214;6.768;2022-12-07T15:43:10;16.17;;;5.50;;
4971;SDS011;2501;51.214;6.768;2022-12-07T15:45:51;13.95;;;5.72;;
4971;SDS011;2501;51.214;6.768;2022-12-07T15:48:22;11.57;;;5.83;;
4971;SDS011;2501;51.214;6.768;2022-12-07T15:50:51;17.27;;;7.17;;
4971;SDS011;2501;51.214;6.768;2022-12-07T15:53:19;14.90;;;6.95;;
4971;SDS011;2501;51.214;6.768;2022-12-07T15:55:48;13.15;;;6.75;;
4971;SDS011;2501;51.214;6.768;2022-12-07T15:58:16;23.73;;;10.05;;
4971;SDS011;2501;51.214;6.768;2022-12-07T16:00:45;32.03;;;14.55;;